sensor_id;sensor_type;location;lat;lon;timestamp;P1;P2;P0
73825;PMS5003;64145;55.060;73.168;2023-05-10T00:01:44;59.00;47.50;32.50
73825;PMS5003;64145;55.060;73.168;2023-05-10T00:04:28;61.25;53.00;34.00
73825;PMS5003;64145;55.060;73.168;2023-05-10T00:09:38;65.50;59.75;39.00
73825;PMS5003;64145;55.060;73.168;2023-05-10T00:12:04;66.33;61.00;41.00
73825;PMS5003;64145;55.060;73.168;2023-05-10T00:17:14;75.50;69.50;44.00
73825;PMS5003;64145;55.060;73.168;2023-05-10T00:19:40;73.33;66.67;43.00
73825;PMS5003;64145;55.060;73.168;2023-05-10T00:22:05;77.67;71.00;45.00
73825;PMS5003;64145;55.060;73.168;2023-05-10T00:24:31;74.33;68.00;43.00
73825;PMS5003;64145;55.060;73.168;2023-05-10T00:26:57;65.33;58.67;38.67
73825;PMS5003;64145;55.060;73.168;2023-05-10T00:29:22;61.00;50.33;35.00
73825;PMS5003;64145;55.060;73.168;2023-05-10T00:31:48;57.00;45.00;31.00
73825;PMS5003;64145;55.060;73.168;2023-05-10T00:34:13;56.33;44.33;32.00
73825;PMS5003;64145;55.060;73.168;2023-05-10T00:36:39;56.33;44.33;30.00
73825;PMS5003;64145;55.060;73.168;2023-05-10T00:39:04;57.00;44.00;31.33
73825;PMS5003;64145;55.060;73.168;2023-05-10T00:41:30;56.67;45.00;31.67
73825;PMS5003;64145;55.060;73.168;2023-05-10T00:44:17;55.50;44.00;31.50
73825;PMS5003;64145;55.060;73.168;2023-05-10T00:46:46;55.50;45.50;32.25
73825;PMS5003;64145;55.060;73.168;2023-05-10T00:49:12;58.50;46.75;34.00
73825;PMS5003;64145;55.060;73.168;2023-05-10T00:51:40;58.50;46.00;33.00
73825;PMS5003;64145;55.060;73.168;2023-05-10T00:54:09;58.00;46.50;33.00
73825;PMS5003;64145;55.060;73.168;2023-05-10T00:56:54;57.50;45.50;33.00
73825;PMS5003;64145;55.060;73.168;2023-05-10T00:59:22;57.50;45.00;31.50
73825;PMS5003;64145;55.060;73.168;2023-05-10T01:01:48;57.00;45.50;31.00
73825;PMS5003;64145;55.060;73.168;2023-05-10T01:04:16;57.67;47.00;32.33
73825;PMS5003;64145;55.060;73.168;2023-05-10T01:06:41;61.75;50.75;35.25
73825;PMS5003;64145;55.060;73.168;2023-05-10T01:09:07;61.50;50.00;35.50
73825;PMS5003;64145;55.060;73.168;2023-05-10T01:11:34;62.50;51.25;37.00
73825;PMS5003;64145;55.060;73.168;2023-05-10T01:14:02;61.50;48.50;35.50
73825;PMS5003;64145;55.060;73.168;2023-05-10T01:16:29;61.50;49.00;34.00
73825;PMS5003;64145;55.060;73.168;2023-05-10T01:18:57;63.00;50.75;36.00
73825;PMS5003;64145;55.060;73.168;2023-05-10T01:21:27;61.00;49.00;33.33
73825;PMS5003;64145;55.060;73.168;2023-05-10T01:26:31;58.33;47.00;34.00
73825;PMS5003;64145;55.060;73.168;2023-05-10T01:29:11;57.00;45.50;32.25
73825;PMS5003;64145;55.060;73.168;2023-05-10T01:37:09;66.50;57.00;41.00
73825;PMS5003;64145;55.060;73.168;2023-05-10T01:39:45;64.50;54.25;37.00
73825;PMS5003;64145;55.060;73.168;2023-05-10T01:42:18;64.00;53.50;38.00
73825;PMS5003;64145;55.060;73.168;2023-05-10T01:47:35;65.00;55.00;39.00
73825;PMS5003;64145;55.060;73.168;2023-05-10T01:50:03;63.50;50.75;35.00
73825;PMS5003;64145;55.060;73.168;2023-05-10T01:52:32;63.50;53.75;37.00
73825;PMS5003;64145;55.060;73.168;2023-05-10T01:55:01;65.75;58.25;40.50
73825;PMS5003;64145;55.060;73.168;2023-05-10T01:57:30;65.00;57.00;42.00
73825;PMS5003;64145;55.060;73.168;2023-05-10T01:59:57;66.50;56.50;41.00
73825;PMS5003;64145;55.060;73.168;2023-05-10T02:02:25;69.50;61.00;42.25
73825;PMS5003;64145;55.060;73.168;2023-05-10T02:04:53;65.00;53.75;36.75
73825;PMS5003;64145;55.060;73.168;2023-05-10T02:10:06;61.00;48.50;32.75
73825;PMS5003;64145;55.060;73.168;2023-05-10T02:12:35;60.50;48.50;33.00
73825;PMS5003;64145;55.060;73.168;2023-05-10T02:15:01;63.00;50.50;34.00
73825;PMS5003;64145;55.060;73.168;2023-05-10T02:20:12;63.00;50.00;34.25
73825;PMS5003;64145;55.060;73.168;2023-05-10T02:22:43;64.50;52.00;36.00
73825;PMS5003;64145;55.060;73.168;2023-05-10T02:25:10;62.00;50.75;35.75
73825;PMS5003;64145;55.060;73.168;2023-05-10T02:27:39;63.00;51.00;36.50
73825;PMS5003;64145;55.060;73.168;2023-05-10T02:30:14;61.00;49.75;35.00
73825;PMS5003;64145;55.060;73.168;2023-05-10T02:32:41;61.50;50.00;36.00
73825;PMS5003;64145;55.060;73.168;2023-05-10T02:35:12;65.00;53.75;37.00
73825;PMS5003;64145;55.060;73.168;2023-05-10T02:40:33;66.00;52.00;38.00
73825;PMS5003;64145;55.060;73.168;2023-05-10T02:43:02;65.25;51.00;35.00
73825;PMS5003;64145;55.060;73.168;2023-05-10T02:45:33;64.50;53.25;38.00
73825;PMS5003;64145;55.060;73.168;2023-05-10T02:48:00;65.00;52.50;38.50
73825;PMS5003;64145;55.060;73.168;2023-05-10T02:50:32;65.00;52.00;38.00
73825;PMS5003;64145;55.060;73.168;2023-05-10T02:53:11;65.50;52.00;38.00
73825;PMS5003;64145;55.060;73.168;2023-05-10T02:55:51;66.75;54.00;38.00
73825;PMS5003;64145;55.060;73.168;2023-05-10T02:58:22;65.00;53.50;38.25
73825;PMS5003;64145;55.060;73.168;2023-05-10T03:00:51;65.00;53.75;38.50
73825;PMS5003;64145;55.060;73.168;2023-05-10T03:03:21;66.50;55.00;40.75
73825;PMS5003;64145;55.060;73.168;2023-05-10T03:08:31;64.75;54.75;39.00
73825;PMS5003;64145;55.060;73.168;2023-05-10T03:13:47;67.00;56.50;39.00
73825;PMS5003;64145;55.060;73.168;2023-05-10T03:16:27;69.00;58.75;41.00
73825;PMS5003;64145;55.060;73.168;2023-05-10T03:19:12;67.00;57.50;41.00
73825;PMS5003;64145;55.060;73.168;2023-05-10T03:21:43;68.25;58.50;42.50
73825;PMS5003;64145;55.060;73.168;2023-05-10T03:24:17;69.00;58.00;41.00
73825;PMS5003;64145;55.060;73.168;2023-05-10T03:26:45;68.50;58.50;40.00
73825;PMS5003;64145;55.060;73.168;2023-05-10T03:29:11;72.00;61.00;41.75
73825;PMS5003;64145;55.060;73.168;2023-05-10T03:31:38;70.50;61.50;43.00
73825;PMS5003;64145;55.060;73.168;2023-05-10T03:34:07;69.50;61.00;43.00
73825;PMS5003;64145;55.060;73.168;2023-05-10T03:39:38;65.75;55.50;39.00
73825;PMS5003;64145;55.060;73.168;2023-05-10T03:42:04;63.67;52.00;37.33
73825;PMS5003;64145;55.060;73.168;2023-05-10T03:47:15;65.00;53.00;37.00
73825;PMS5003;64145;55.060;73.168;2023-05-10T03:49:40;63.33;51.00;35.00
73825;PMS5003;64145;55.060;73.168;2023-05-10T03:52:06;62.33;51.00;35.00
73825;PMS5003;64145;55.060;73.168;2023-05-10T03:54:31;63.00;50.00;34.00
73825;PMS5003;64145;55.060;73.168;2023-05-10T03:56:57;57.75;46.00;31.25
73825;PMS5003;64145;55.060;73.168;2023-05-10T03:59:23;60.00;47.67;32.00
73825;PMS5003;64145;55.060;73.168;2023-05-10T04:01:51;57.00;47.00;32.00
73825;PMS5003;64145;55.060;73.168;2023-05-10T04:04:17;53.00;43.75;30.00
73825;PMS5003;64145;55.060;73.168;2023-05-10T04:06:44;54.75;44.25;30.00
73825;PMS5003;64145;55.060;73.168;2023-05-10T04:09:10;54.00;45.00;30.00
73825;PMS5003;64145;55.060;73.168;2023-05-10T04:11:35;52.00;43.00;30.00
73825;PMS5003;64145;55.060;73.168;2023-05-10T04:14:01;51.00;42.00;29.00
73825;PMS5003;64145;55.060;73.168;2023-05-10T04:16:27;50.00;41.33;29.00
73825;PMS5003;64145;55.060;73.168;2023-05-10T04:18:52;51.00;42.00;29.00
73825;PMS5003;64145;55.060;73.168;2023-05-10T04:21:18;52.00;42.67;29.00
73825;PMS5003;64145;55.060;73.168;2023-05-10T04:23:43;51.00;43.00;29.00
73825;PMS5003;64145;55.060;73.168;2023-05-10T04:26:09;52.00;43.00;30.00
73825;PMS5003;64145;55.060;73.168;2023-05-10T04:28:53;51.00;42.00;28.00
73825;PMS5003;64145;55.060;73.168;2023-05-10T04:31:19;51.00;43.00;29.00
73825;PMS5003;64145;55.060;73.168;2023-05-10T04:33:44;51.00;42.00;29.00
73825;PMS5003;64145;55.060;73.168;2023-05-10T04:36:10;49.00;41.25;28.75
73825;PMS5003;64145;55.060;73.168;2023-05-10T04:38:36;47.00;40.00;28.00
73825;PMS5003;64145;55.060;73.168;2023-05-10T04:43:46;49.00;41.00;28.00
73825;PMS5003;64145;55.060;73.168;2023-05-10T04:46:14;50.00;41.50;28.00
73825;PMS5003;64145;55.060;73.168;2023-05-10T04:48:39;50.00;41.00;28.00
73825;PMS5003;64145;55.060;73.168;2023-05-10T04:51:05;51.67;43.00;28.67
73825;PMS5003;64145;55.060;73.168;2023-05-10T04:53:31;53.50;43.75;30.00
73825;PMS5003;64145;55.060;73.168;2023-05-10T04:56:15;52.25;44.00;30.00
73825;PMS5003;64145;55.060;73.168;2023-05-10T04:58:59;51.00;43.00;29.00
73825;PMS5003;64145;55.060;73.168;2023-05-10T05:01:25;50.75;42.25;29.25
73825;PMS5003;64145;55.060;73.168;2023-05-10T05:06:44;52.00;43.00;29.00
73825;PMS5003;64145;55.060;73.168;2023-05-10T05:12:13;49.75;41.00;29.00
73825;PMS5003;64145;55.060;73.168;2023-05-10T05:14:39;49.00;41.00;29.00
73825;PMS5003;64145;55.060;73.168;2023-05-10T05:17:05;49.00;41.00;28.00
73825;PMS5003;64145;55.060;73.168;2023-05-10T05:19:30;49.00;41.00;28.67
73825;PMS5003;64145;55.060;73.168;2023-05-10T05:21:56;49.00;41.00;29.00
73825;PMS5003;64145;55.060;73.168;2023-05-10T05:27:07;47.75;39.25;27.25
73825;PMS5003;64145;55.060;73.168;2023-05-10T05:29:32;51.00;42.00;28.00
73825;PMS5003;64145;55.060;73.168;2023-05-10T05:32:16;50.00;43.00;28.00
73825;PMS5003;64145;55.060;73.168;2023-05-10T05:34:44;50.00;42.00;28.67
73825;PMS5003;64145;55.060;73.168;2023-05-10T05:37:28;48.00;40.25;28.00
73825;PMS5003;64145;55.060;73.168;2023-05-10T05:39:53;47.67;39.67;27.67
73825;PMS5003;64145;55.060;73.168;2023-05-10T05:45:21;47.50;39.25;27.00
73825;PMS5003;64145;55.060;73.168;2023-05-10T05:47:47;48.00;40.00;27.00
73825;PMS5003;64145;55.060;73.168;2023-05-10T05:50:13;45.33;38.33;27.00
73825;PMS5003;64145;55.060;73.168;2023-05-10T05:52:38;48.00;40.00;27.00
73825;PMS5003;64145;55.060;73.168;2023-05-10T05:55:04;48.00;39.00;26.00
73825;PMS5003;64145;55.060;73.168;2023-05-10T05:57:30;48.00;39.00;26.50
73825;PMS5003;64145;55.060;73.168;2023-05-10T05:59:55;48.00;40.00;27.00
73825;PMS5003;64145;55.060;73.168;2023-05-10T06:02:21;48.00;40.00;28.00
73825;PMS5003;64145;55.060;73.168;2023-05-10T06:07:31;47.00;39.00;28.00
73825;PMS5003;64145;55.060;73.168;2023-05-10T06:10:15;47.25;40.00;27.25
73825;PMS5003;64145;55.060;73.168;2023-05-10T06:12:40;46.00;39.67;27.00
73825;PMS5003;64145;55.060;73.168;2023-05-10T06:15:07;44.50;37.50;26.00
73825;PMS5003;64145;55.060;73.168;2023-05-10T06:17:32;47.00;39.00;27.00
73825;PMS5003;64145;55.060;73.168;2023-05-10T06:20:16;47.50;38.00;27.00
73825;PMS5003;64145;55.060;73.168;2023-05-10T06:22:42;45.33;37.67;25.00
73825;PMS5003;64145;55.060;73.168;2023-05-10T06:25:08;43.00;37.00;26.00
73825;PMS5003;64145;55.060;73.168;2023-05-10T06:27:33;41.00;35.00;25.00
73825;PMS5003;64145;55.060;73.168;2023-05-10T06:29:59;44.00;37.00;26.00
73825;PMS5003;64145;55.060;73.168;2023-05-10T06:32:25;39.67;34.00;24.67
73825;PMS5003;64145;55.060;73.168;2023-05-10T06:34:50;43.00;35.00;25.00
73825;PMS5003;64145;55.060;73.168;2023-05-10T06:37:16;44.00;36.00;26.00
73825;PMS5003;64145;55.060;73.168;2023-05-10T06:39:42;44.00;36.00;26.00
73825;PMS5003;64145;55.060;73.168;2023-05-10T06:42:26;43.75;36.00;25.00
73825;PMS5003;64145;55.060;73.168;2023-05-10T06:44:52;41.50;35.00;24.00
73825;PMS5003;64145;55.060;73.168;2023-05-10T06:50:02;42.00;35.25;23.00
73825;PMS5003;64145;55.060;73.168;2023-05-10T06:52:46;43.75;36.75;24.75
73825;PMS5003;64145;55.060;73.168;2023-05-10T06:55:12;44.00;37.00;25.00
73825;PMS5003;64145;55.060;73.168;2023-05-10T06:57:38;44.00;37.00;26.00
73825;PMS5003;64145;55.060;73.168;2023-05-10T07:00:03;48.00;40.00;26.00
73825;PMS5003;64145;55.060;73.168;2023-05-10T07:05:15;46.00;38.00;27.00
73825;PMS5003;64145;55.060;73.168;2023-05-10T07:10:43;44.25;36.00;25.00
73825;PMS5003;64145;55.060;73.168;2023-05-10T07:13:09;45.33;38.00;26.00
73825;PMS5003;64145;55.060;73.168;2023-05-10T07:15:53;44.00;37.25;26.00
73825;PMS5003;64145;55.060;73.168;2023-05-10T07:18:21;45.00;38.00;26.00
73825;PMS5003;64145;55.060;73.168;2023-05-10T07:20:47;42.00;37.00;25.00
73825;PMS5003;64145;55.060;73.168;2023-05-10T07:23:12;45.67;37.00;25.00
73825;PMS5003;64145;55.060;73.168;2023-05-10T07:25:38;46.00;38.00;25.67
73825;PMS5003;64145;55.060;73.168;2023-05-10T07:30:48;44.00;38.00;25.00
73825;PMS5003;64145;55.060;73.168;2023-05-10T07:33:14;42.00;36.67;23.00
73825;PMS5003;64145;55.060;73.168;2023-05-10T07:38:24;43.00;36.00;25.50
73825;PMS5003;64145;55.060;73.168;2023-05-10T07:40:50;43.50;36.50;26.00
73825;PMS5003;64145;55.060;73.168;2023-05-10T07:43:16;44.00;36.75;26.00
73825;PMS5003;64145;55.060;73.168;2023-05-10T07:45:41;43.67;36.67;26.00
73825;PMS5003;64145;55.060;73.168;2023-05-10T07:48:09;44.00;37.00;25.00
73825;PMS5003;64145;55.060;73.168;2023-05-10T07:50:35;47.00;38.50;26.50
73825;PMS5003;64145;55.060;73.168;2023-05-10T07:53:01;46.67;39.67;27.00
73825;PMS5003;64145;55.060;73.168;2023-05-10T07:55:26;46.00;39.00;27.00
73825;PMS5003;64145;55.060;73.168;2023-05-10T07:57:52;45.67;38.67;26.67
73825;PMS5003;64145;55.060;73.168;2023-05-10T08:00:36;44.75;38.00;26.25
73825;PMS5003;64145;55.060;73.168;2023-05-10T08:03:20;44.75;37.00;27.00
73825;PMS5003;64145;55.060;73.168;2023-05-10T08:05:46;43.75;36.75;26.00
73825;PMS5003;64145;55.060;73.168;2023-05-10T08:08:11;47.00;38.67;27.00
73825;PMS5003;64145;55.060;73.168;2023-05-10T08:10:37;45.67;38.00;27.00
73825;PMS5003;64145;55.060;73.168;2023-05-10T08:13:02;41.67;36.00;25.00
73825;PMS5003;64145;55.060;73.168;2023-05-10T08:15:28;43.00;36.67;25.00
73825;PMS5003;64145;55.060;73.168;2023-05-10T08:17:54;43.67;36.67;25.00
73825;PMS5003;64145;55.060;73.168;2023-05-10T08:20:19;44.33;37.67;25.67
73825;PMS5003;64145;55.060;73.168;2023-05-10T08:22:45;43.00;36.00;25.00
73825;PMS5003;64145;55.060;73.168;2023-05-10T08:25:11;43.00;36.50;24.50
73825;PMS5003;64145;55.060;73.168;2023-05-10T08:27:37;44.00;36.00;25.33
73825;PMS5003;64145;55.060;73.168;2023-05-10T08:30:03;43.00;36.67;25.67
73825;PMS5003;64145;55.060;73.168;2023-05-10T08:32:28;43.00;36.67;25.00
73825;PMS5003;64145;55.060;73.168;2023-05-10T08:34:54;45.33;37.00;26.00
73825;PMS5003;64145;55.060;73.168;2023-05-10T08:40:10;43.50;36.50;26.00
73825;PMS5003;64145;55.060;73.168;2023-05-10T08:42:36;42.00;36.00;25.00
73825;PMS5003;64145;55.060;73.168;2023-05-10T08:47:51;42.50;35.50;25.00
73825;PMS5003;64145;55.060;73.168;2023-05-10T08:50:18;44.00;37.50;26.00
73825;PMS5003;64145;55.060;73.168;2023-05-10T08:52:45;43.50;36.75;25.00
73825;PMS5003;64145;55.060;73.168;2023-05-10T08:55:13;40.50;33.50;24.00
73825;PMS5003;64145;55.060;73.168;2023-05-10T08:57:57;44.00;37.50;25.50
73825;PMS5003;64145;55.060;73.168;2023-05-10T09:00:23;45.00;38.00;26.00
73825;PMS5003;64145;55.060;73.168;2023-05-10T09:02:49;46.00;39.00;26.00
73825;PMS5003;64145;55.060;73.168;2023-05-10T09:05:15;44.50;36.50;25.00
73825;PMS5003;64145;55.060;73.168;2023-05-10T09:07:41;45.00;38.50;27.00
73825;PMS5003;64145;55.060;73.168;2023-05-10T09:10:07;44.50;38.00;26.00
73825;PMS5003;64145;55.060;73.168;2023-05-10T09:12:34;46.25;39.50;27.00
73825;PMS5003;64145;55.060;73.168;2023-05-10T09:15:00;45.50;38.00;26.75
73825;PMS5003;64145;55.060;73.168;2023-05-10T09:17:45;46.50;38.00;26.75
73825;PMS5003;64145;55.060;73.168;2023-05-10T09:20:11;50.75;40.50;27.25
73825;PMS5003;64145;55.060;73.168;2023-05-10T09:22:36;46.00;38.67;26.00
73825;PMS5003;64145;55.060;73.168;2023-05-10T09:27:32;48.00;40.00;27.00
73825;PMS5003;64145;55.060;73.168;2023-05-10T09:29:57;45.50;39.00;26.00
73825;PMS5003;64145;55.060;73.168;2023-05-10T09:32:35;48.00;40.67;27.00
73825;PMS5003;64145;55.060;73.168;2023-05-10T09:35:11;49.00;40.50;27.00
73825;PMS5003;64145;55.060;73.168;2023-05-10T09:37:41;50.00;40.50;28.25
73825;PMS5003;64145;55.060;73.168;2023-05-10T09:40:07;50.50;41.50;28.50
73825;PMS5003;64145;55.060;73.168;2023-05-10T09:42:34;49.25;40.00;28.00
73825;PMS5003;64145;55.060;73.168;2023-05-10T09:45:01;48.00;41.00;28.00
73825;PMS5003;64145;55.060;73.168;2023-05-10T09:47:27;46.50;39.00;28.00
73825;PMS5003;64145;55.060;73.168;2023-05-10T09:49:53;45.75;39.00;27.50
73825;PMS5003;64145;55.060;73.168;2023-05-10T09:52:21;44.25;39.00;26.00
73825;PMS5003;64145;55.060;73.168;2023-05-10T09:54:53;43.00;37.00;26.00
73825;PMS5003;64145;55.060;73.168;2023-05-10T10:00:04;40.75;35.00;25.00
73825;PMS5003;64145;55.060;73.168;2023-05-10T10:02:30;39.00;34.00;25.00
73825;PMS5003;64145;55.060;73.168;2023-05-10T10:04:56;43.00;36.75;26.00
73825;PMS5003;64145;55.060;73.168;2023-05-10T10:07:22;43.00;35.00;24.33
73825;PMS5003;64145;55.060;73.168;2023-05-10T10:09:49;39.25;33.25;23.75
73825;PMS5003;64145;55.060;73.168;2023-05-10T10:12:15;38.00;33.00;25.00
73825;PMS5003;64145;55.060;73.168;2023-05-10T10:14:40;39.00;34.00;24.00
73825;PMS5003;64145;55.060;73.168;2023-05-10T10:17:06;37.00;33.00;23.00
73825;PMS5003;64145;55.060;73.168;2023-05-10T10:19:33;37.00;33.00;23.00
73825;PMS5003;64145;55.060;73.168;2023-05-10T10:24:43;39.00;35.00;23.00
73825;PMS5003;64145;55.060;73.168;2023-05-10T10:27:23;39.50;35.00;23.00
73825;PMS5003;64145;55.060;73.168;2023-05-10T10:35:00;39.00;34.00;25.00
73825;PMS5003;64145;55.060;73.168;2023-05-10T10:37:40;38.00;34.00;24.00
73825;PMS5003;64145;55.060;73.168;2023-05-10T10:51:17;36.00;31.00;22.00
73825;PMS5003;64145;55.060;73.168;2023-05-10T10:53:43;36.00;32.00;22.00
73825;PMS5003;64145;55.060;73.168;2023-05-10T10:56:12;36.75;33.25;23.00
73825;PMS5003;64145;55.060;73.168;2023-05-10T10:58:40;34.75;32.00;22.00
73825;PMS5003;64145;55.060;73.168;2023-05-10T11:01:13;33.00;31.00;21.00
73825;PMS5003;64145;55.060;73.168;2023-05-10T11:03:39;34.00;31.50;20.50
73825;PMS5003;64145;55.060;73.168;2023-05-10T11:06:05;33.00;31.00;21.00
73825;PMS5003;64145;55.060;73.168;2023-05-10T11:08:31;29.00;27.67;20.00
73825;PMS5003;64145;55.060;73.168;2023-05-10T11:13:46;27.00;27.00;19.00
73825;PMS5003;64145;55.060;73.168;2023-05-10T11:21:45;29.00;29.00;19.00
73825;PMS5003;64145;55.060;73.168;2023-05-10T11:24:15;29.00;27.00;19.00
73825;PMS5003;64145;55.060;73.168;2023-05-10T11:29:26;28.00;27.50;18.00
73825;PMS5003;64145;55.060;73.168;2023-05-10T11:31:51;29.00;27.00;19.00
73825;PMS5003;64145;55.060;73.168;2023-05-10T11:34:27;27.00;27.00;19.00
73825;PMS5003;64145;55.060;73.168;2023-05-10T11:36:54;26.25;23.75;16.00
73825;PMS5003;64145;55.060;73.168;2023-05-10T11:39:20;26.00;25.00;18.00
73825;PMS5003;64145;55.060;73.168;2023-05-10T11:41:50;26.00;25.00;19.00
73825;PMS5003;64145;55.060;73.168;2023-05-10T11:44:16;28.50;26.50;18.00
73825;PMS5003;64145;55.060;73.168;2023-05-10T11:47:00;26.00;24.25;17.00
73825;PMS5003;64145;55.060;73.168;2023-05-10T11:49:26;24.50;23.25;17.00
73825;PMS5003;64145;55.060;73.168;2023-05-10T11:51:52;25.00;23.00;17.00
73825;PMS5003;64145;55.060;73.168;2023-05-10T11:54:17;28.00;25.00;19.00
73825;PMS5003;64145;55.060;73.168;2023-05-10T11:56:43;27.00;25.00;19.00
73825;PMS5003;64145;55.060;73.168;2023-05-10T11:59:10;28.75;28.25;19.00
73825;PMS5003;64145;55.060;73.168;2023-05-10T12:04:20;27.00;25.00;19.00
73825;PMS5003;64145;55.060;73.168;2023-05-10T12:09:30;26.00;22.00;16.00
73825;PMS5003;64145;55.060;73.168;2023-05-10T12:12:07;25.00;22.00;17.00
73825;PMS5003;64145;55.060;73.168;2023-05-10T12:14:34;23.00;22.25;15.75
73825;PMS5003;64145;55.060;73.168;2023-05-10T12:17:19;24.00;23.00;14.00
73825;PMS5003;64145;55.060;73.168;2023-05-10T12:19:44;26.50;25.00;15.00
73825;PMS5003;64145;55.060;73.168;2023-05-10T12:22:10;22.00;22.00;16.00
73825;PMS5003;64145;55.060;73.168;2023-05-10T12:24:36;25.33;24.00;17.00
73825;PMS5003;64145;55.060;73.168;2023-05-10T12:27:07;26.00;25.75;18.00
73825;PMS5003;64145;55.060;73.168;2023-05-10T12:32:17;23.25;22.00;18.00
73825;PMS5003;64145;55.060;73.168;2023-05-10T12:34:43;26.00;24.00;19.00
73825;PMS5003;64145;55.060;73.168;2023-05-10T12:37:11;27.50;24.50;19.00
73825;PMS5003;64145;55.060;73.168;2023-05-10T12:39:39;28.00;25.00;18.00
73825;PMS5003;64145;55.060;73.168;2023-05-10T12:42:06;28.75;25.25;18.00
73825;PMS5003;64145;55.060;73.168;2023-05-10T12:44:32;33.50;29.00;19.00
73825;PMS5003;64145;55.060;73.168;2023-05-10T12:46:57;33.00;30.00;19.33
73825;PMS5003;64145;55.060;73.168;2023-05-10T12:49:24;30.00;29.00;19.00
73825;PMS5003;64145;55.060;73.168;2023-05-10T12:51:50;28.00;27.67;19.00
73825;PMS5003;64145;55.060;73.168;2023-05-10T12:54:15;31.33;30.00;20.67
73825;PMS5003;64145;55.060;73.168;2023-05-10T12:56:42;34.33;31.00;20.67
73825;PMS5003;64145;55.060;73.168;2023-05-10T12:59:08;52.50;42.75;26.75
73825;PMS5003;64145;55.060;73.168;2023-05-10T13:01:33;56.67;44.67;29.67
73825;PMS5003;64145;55.060;73.168;2023-05-10T13:04:00;53.00;42.50;28.00
73825;PMS5003;64145;55.060;73.168;2023-05-10T13:06:25;44.67;36.67;24.67
73825;PMS5003;64145;55.060;73.168;2023-05-10T13:08:51;32.33;29.00;21.00
73825;PMS5003;64145;55.060;73.168;2023-05-10T13:11:17;30.00;29.00;21.00
73825;PMS5003;64145;55.060;73.168;2023-05-10T13:13:44;33.50;30.25;20.50
73825;PMS5003;64145;55.060;73.168;2023-05-10T13:18:54;46.00;38.00;24.50
73825;PMS5003;64145;55.060;73.168;2023-05-10T13:21:20;42.67;35.67;23.00
73825;PMS5003;64145;55.060;73.168;2023-05-10T13:23:46;42.67;36.00;24.00
73825;PMS5003;64145;55.060;73.168;2023-05-10T13:28:56;30.50;29.00;21.00
73825;PMS5003;64145;55.060;73.168;2023-05-10T13:31:22;36.33;32.33;21.00
73825;PMS5003;64145;55.060;73.168;2023-05-10T13:33:47;35.00;31.00;22.00
73825;PMS5003;64145;55.060;73.168;2023-05-10T13:36:13;36.00;31.67;21.00
73825;PMS5003;64145;55.060;73.168;2023-05-10T13:38:38;34.00;31.00;21.00
73825;PMS5003;64145;55.060;73.168;2023-05-10T13:44:07;34.00;31.00;21.00
73825;PMS5003;64145;55.060;73.168;2023-05-10T13:46:51;56.50;46.50;31.25
73825;PMS5003;64145;55.060;73.168;2023-05-10T13:49:35;69.00;59.25;38.75
73825;PMS5003;64145;55.060;73.168;2023-05-10T13:52:20;69.25;60.50;39.00
73825;PMS5003;64145;55.060;73.168;2023-05-10T13:54:45;61.33;49.67;33.00
73825;PMS5003;64145;55.060;73.168;2023-05-10T13:57:11;52.67;43.67;29.00
73825;PMS5003;64145;55.060;73.168;2023-05-10T13:59:39;57.50;46.50;31.25
73825;PMS5003;64145;55.060;73.168;2023-05-10T14:02:04;78.25;71.00;45.25
73825;PMS5003;64145;55.060;73.168;2023-05-10T14:07:15;78.00;71.25;45.00
73825;PMS5003;64145;55.060;73.168;2023-05-10T14:09:40;70.67;61.00;38.67
73825;PMS5003;64145;55.060;73.168;2023-05-10T14:12:06;67.67;57.00;37.00
73825;PMS5003;64145;55.060;73.168;2023-05-10T14:14:31;66.33;54.00;35.00
73825;PMS5003;64145;55.060;73.168;2023-05-10T14:20:00;64.00;53.00;34.00
73825;PMS5003;64145;55.060;73.168;2023-05-10T14:22:26;60.67;49.00;32.00
73825;PMS5003;64145;55.060;73.168;2023-05-10T14:24:51;56.67;47.00;31.00
73825;PMS5003;64145;55.060;73.168;2023-05-10T14:27:17;53.00;43.67;29.00
73825;PMS5003;64145;55.060;73.168;2023-05-10T14:29:43;51.00;41.00;28.00
73825;PMS5003;64145;55.060;73.168;2023-05-10T14:32:08;49.67;40.00;27.00
73825;PMS5003;64145;55.060;73.168;2023-05-10T14:34:34;42.33;33.67;23.00
73825;PMS5003;64145;55.060;73.168;2023-05-10T14:36:59;33.33;29.00;21.00
73825;PMS5003;64145;55.060;73.168;2023-05-10T14:39:25;30.00;29.00;19.00
73825;PMS5003;64145;55.060;73.168;2023-05-10T14:41:54;28.00;28.00;19.75
73825;PMS5003;64145;55.060;73.168;2023-05-10T14:44:20;27.00;27.00;19.00
73825;PMS5003;64145;55.060;73.168;2023-05-10T14:46:45;25.00;25.00;19.00
73825;PMS5003;64145;55.060;73.168;2023-05-10T14:49:11;26.00;24.67;17.00
73825;PMS5003;64145;55.060;73.168;2023-05-10T14:51:37;26.00;26.00;17.00
73825;PMS5003;64145;55.060;73.168;2023-05-10T14:54:02;51.00;41.67;29.00
73825;PMS5003;64145;55.060;73.168;2023-05-10T14:56:28;62.67;50.00;34.00
73825;PMS5003;64145;55.060;73.168;2023-05-10T14:58:54;71.33;60.33;42.67
73825;PMS5003;64145;55.060;73.168;2023-05-10T15:01:19;73.00;63.00;44.67
73825;PMS5003;64145;55.060;73.168;2023-05-10T15:04:04;76.50;69.00;51.75
73825;PMS5003;64145;55.060;73.168;2023-05-10T15:06:33;74.00;66.00;48.50
73825;PMS5003;64145;55.060;73.168;2023-05-10T15:08:59;69.25;57.50;41.00
73825;PMS5003;64145;55.060;73.168;2023-05-10T15:11:25;67.25;53.00;39.25
73825;PMS5003;64145;55.060;73.168;2023-05-10T15:13:51;65.00;50.67;37.00
73825;PMS5003;64145;55.060;73.168;2023-05-10T15:16:16;63.00;51.00;35.00
73825;PMS5003;64145;55.060;73.168;2023-05-10T15:18:42;70.75;60.75;42.75
73825;PMS5003;64145;55.060;73.168;2023-05-10T15:21:08;77.00;70.33;49.00
73825;PMS5003;64145;55.060;73.168;2023-05-10T15:23:34;75.00;70.00;50.00
73825;PMS5003;64145;55.060;73.168;2023-05-10T15:26:00;72.00;64.00;46.00
73825;PMS5003;64145;55.060;73.168;2023-05-10T15:28:26;70.00;60.50;43.00
73825;PMS5003;64145;55.060;73.168;2023-05-10T15:30:51;69.00;57.00;40.00
73825;PMS5003;64145;55.060;73.168;2023-05-10T15:33:17;68.00;55.00;39.00
73825;PMS5003;64145;55.060;73.168;2023-05-10T15:35:43;70.00;56.00;39.00
73825;PMS5003;64145;55.060;73.168;2023-05-10T15:38:09;69.33;57.00;40.00
73825;PMS5003;64145;55.060;73.168;2023-05-10T15:40:34;70.00;58.25;39.00
73825;PMS5003;64145;55.060;73.168;2023-05-10T15:45:47;71.00;60.50;41.00
73825;PMS5003;64145;55.060;73.168;2023-05-10T15:50:57;66.00;51.00;36.00
73825;PMS5003;64145;55.060;73.168;2023-05-10T15:53:23;62.33;49.67;33.00
73825;PMS5003;64145;55.060;73.168;2023-05-10T15:55:48;59.00;47.00;32.00